sensor_id;sensor_type;location;lat;lon;timestamp;pressure;altitude;pressure_sealevel;temperature;humidity
10881;BME280;5493;48.884;8.338;2023-04-06T00:01:47;100495.22;;;4.07;100.00
10881;BME280;5493;48.884;8.338;2023-04-06T00:04:13;100495.25;;;3.99;100.00
10881;BME280;5493;48.884;8.338;2023-04-06T00:06:40;100490.88;;;4.14;100.00
10881;BME280;5493;48.884;8.338;2023-04-06T00:09:06;100492.19;;;4.18;100.00
10881;BME280;5493;48.884;8.338;2023-04-06T00:11:33;100494.53;;;4.13;100.00
10881;BME280;5493;48.884;8.338;2023-04-06T00:14:00;100498.97;;;3.90;100.00
10881;BME280;5493;48.884;8.338;2023-04-06T00:16:28;100498.03;;;3.59;100.00
10881;BME280;5493;48.884;8.338;2023-04-06T00:18:54;100492.53;;;3.44;100.00
10881;BME280;5493;48.884;8.338;2023-04-06T00:21:21;100494.72;;;3.08;100.00
10881;BME280;5493;48.884;8.338;2023-04-06T00:23:48;100492.75;;;3.18;100.00
10881;BME280;5493;48.884;8.338;2023-04-06T00:26:14;100498.06;;;3.51;100.00
10881;BME280;5493;48.884;8.338;2023-04-06T00:28:41;100495.53;;;3.57;100.00
10881;BME280;5493;48.884;8.338;2023-04-06T00:31:07;100501.75;;;3.25;100.00
10881;BME280;5493;48.884;8.338;2023-04-06T00:33:35;100500.22;;;3.31;100.00
10881;BME280;5493;48.884;8.338;2023-04-06T00:36:01;100493.25;;;3.22;100.00
10881;BME280;5493;48.884;8.338;2023-04-06T00:38:28;100497.06;;;3.27;100.00
10881;BME280;5493;48.884;8.338;2023-04-06T00:40:54;100494.41;;;3.35;100.00
10881;BME280;5493;48.884;8.338;2023-04-06T00:43:21;100494.22;;;3.37;100.00
10881;BME280;5493;48.884;8.338;2023-04-06T00:45:47;100498.56;;;3.22;100.00
10881;BME280;5493;48.884;8.338;2023-04-06T00:48:14;100487.25;;;3.04;100.00
10881;BME280;5493;48.884;8.338;2023-04-06T00:50:42;100492.91;;;3.17;100.00
10881;BME280;5493;48.884;8.338;2023-04-06T00:53:09;100491.69;;;3.52;100.00
10881;BME280;5493;48.884;8.338;2023-04-06T00:55:35;100497.56;;;3.07;100.00
10881;BME280;5493;48.884;8.338;2023-04-06T00:58:02;100495.06;;;3.05;100.00
10881;BME280;5493;48.884;8.338;2023-04-06T01:00:29;100489.56;;;3.15;100.00
10881;BME280;5493;48.884;8.338;2023-04-06T01:02:55;100487.09;;;3.21;100.00
10881;BME280;5493;48.884;8.338;2023-04-06T01:05:22;100484.41;;;3.13;100.00
10881;BME280;5493;48.884;8.338;2023-04-06T01:07:50;100487.41;;;3.18;100.00
10881;BME280;5493;48.884;8.338;2023-04-06T01:10:23;100490.22;;;3.09;100.00
10881;BME280;5493;48.884;8.338;2023-04-06T01:12:49;100489.41;;;3.16;100.00
10881;BME280;5493;48.884;8.338;2023-04-06T01:15:16;100487.56;;;3.09;100.00
10881;BME280;5493;48.884;8.338;2023-04-06T01:17:43;100486.59;;;3.10;100.00
10881;BME280;5493;48.884;8.338;2023-04-06T01:20:10;100490.06;;;3.26;100.00
10881;BME280;5493;48.884;8.338;2023-04-06T01:22:38;100489.56;;;3.39;100.00
10881;BME280;5493;48.884;8.338;2023-04-06T01:25:05;100481.25;;;3.18;100.00
10881;BME280;5493;48.884;8.338;2023-04-06T01:27:32;100474.25;;;2.92;100.00
10881;BME280;5493;48.884;8.338;2023-04-06T01:29:58;100462.78;;;2.92;100.00
10881;BME280;5493;48.884;8.338;2023-04-06T01:32:25;100464.13;;;2.96;100.00
10881;BME280;5493;48.884;8.338;2023-04-06T01:34:52;100465.78;;;3.21;100.00
10881;BME280;5493;48.884;8.338;2023-04-06T01:37:19;100461.22;;;3.54;100.00
10881;BME280;5493;48.884;8.338;2023-04-06T01:39:47;100460.91;;;3.41;100.00
10881;BME280;5493;48.884;8.338;2023-04-06T01:42:14;100455.94;;;3.06;100.00
10881;BME280;5493;48.884;8.338;2023-04-06T01:44:40;100461.94;;;3.24;100.00
10881;BME280;5493;48.884;8.338;2023-04-06T01:47:07;100455.41;;;3.51;100.00
10881;BME280;5493;48.884;8.338;2023-04-06T01:49:33;100456.41;;;3.41;100.00
10881;BME280;5493;48.884;8.338;2023-04-06T01:52:00;100456.75;;;3.38;100.00
10881;BME280;5493;48.884;8.338;2023-04-06T01:54:26;100450.25;;;3.33;100.00
10881;BME280;5493;48.884;8.338;2023-04-06T01:56:54;100448.75;;;3.46;100.00
10881;BME280;5493;48.884;8.338;2023-04-06T01:59:21;100448.25;;;3.43;100.00
10881;BME280;5493;48.884;8.338;2023-04-06T02:01:47;100446.88;;;3.55;100.00
10881;BME280;5493;48.884;8.338;2023-04-06T02:04:14;100451.13;;;3.25;100.00
10881;BME280;5493;48.884;8.338;2023-04-06T02:06:40;100443.63;;;3.21;100.00
10881;BME280;5493;48.884;8.338;2023-04-06T02:09:07;100443.81;;;3.03;100.00
10881;BME280;5493;48.884;8.338;2023-04-06T02:11:33;100454.09;;;3.38;100.00
10881;BME280;5493;48.884;8.338;2023-04-06T02:14:01;100442.94;;;3.43;100.00
10881;BME280;5493;48.884;8.338;2023-04-06T02:16:28;100445.06;;;3.47;100.00
10881;BME280;5493;48.884;8.338;2023-04-06T02:18:54;100440.41;;;3.50;100.00
10881;BME280;5493;48.884;8.338;2023-04-06T02:21:21;100433.13;;;3.35;100.00
10881;BME280;5493;48.884;8.338;2023-04-06T02:23:48;100443.44;;;3.22;100.00
10881;BME280;5493;48.884;8.338;2023-04-06T02:26:14;100436.31;;;2.98;100.00
10881;BME280;5493;48.884;8.338;2023-04-06T02:28:41;100433.66;;;3.07;100.00
10881;BME280;5493;48.884;8.338;2023-04-06T02:31:09;100430.31;;;3.21;100.00
10881;BME280;5493;48.884;8.338;2023-04-06T02:33:36;100429.81;;;3.01;100.00
10881;BME280;5493;48.884;8.338;2023-04-06T02:36:03;100426.81;;;3.04;100.00
10881;BME280;5493;48.884;8.338;2023-04-06T02:38:29;100433.81;;;3.13;100.00
10881;BME280;5493;48.884;8.338;2023-04-06T02:40:56;100430.78;;;3.24;100.00
10881;BME280;5493;48.884;8.338;2023-04-06T02:43:22;100435.78;;;3.27;100.00
10881;BME280;5493;48.884;8.338;2023-04-06T02:45:49;100430.94;;;3.23;100.00
10881;BME280;5493;48.884;8.338;2023-04-06T02:48:16;100428.63;;;3.28;100.00
10881;BME280;5493;48.884;8.338;2023-04-06T02:50:43;100436.28;;;3.31;100.00
10881;BME280;5493;48.884;8.338;2023-04-06T02:53:10;100429.81;;;3.25;100.00
10881;BME280;5493;48.884;8.338;2023-04-06T02:55:36;100429.66;;;3.11;100.00
10881;BME280;5493;48.884;8.338;2023-04-06T02:58:03;100430.47;;;3.19;100.00
10881;BME280;5493;48.884;8.338;2023-04-06T03:00:29;100426.50;;;3.07;100.00
10881;BME280;5493;48.884;8.338;2023-04-06T03:02:56;100431.66;;;2.76;100.00
10881;BME280;5493;48.884;8.338;2023-04-06T03:05:24;100420.00;;;2.77;100.00
10881;BME280;5493;48.884;8.338;2023-04-06T03:07:50;100423.00;;;2.74;100.00
10881;BME280;5493;48.884;8.338;2023-04-06T03:10:17;100429.16;;;2.91;100.00
10881;BME280;5493;48.884;8.338;2023-04-06T03:12:43;100427.31;;;2.83;100.00
10881;BME280;5493;48.884;8.338;2023-04-06T03:15:10;100421.31;;;2.97;100.00
10881;BME280;5493;48.884;8.338;2023-04-06T03:17:36;100429.16;;;2.75;100.00
10881;BME280;5493;48.884;8.338;2023-04-06T03:20:04;100423.31;;;2.79;100.00
10881;BME280;5493;48.884;8.338;2023-04-06T03:22:32;100425.16;;;2.79;100.00
10881;BME280;5493;48.884;8.338;2023-04-06T03:24:58;100430.66;;;2.85;100.00
10881;BME280;5493;48.884;8.338;2023-04-06T03:27:25;100426.50;;;2.75;100.00
10881;BME280;5493;48.884;8.338;2023-04-06T03:29:51;100429.16;;;2.83;100.00
10881;BME280;5493;48.884;8.338;2023-04-06T03:32:18;100421.47;;;2.72;100.00
10881;BME280;5493;48.884;8.338;2023-04-06T03:34:44;100425.16;;;2.71;100.00
10881;BME280;5493;48.884;8.338;2023-04-06T03:37:11;100422.97;;;2.58;100.00
10881;BME280;5493;48.884;8.338;2023-04-06T03:39:39;100422.97;;;2.50;100.00
10881;BME280;5493;48.884;8.338;2023-04-06T03:42:05;100421.81;;;2.53;100.00
10881;BME280;5493;48.884;8.338;2023-04-06T03:44:32;100428.28;;;2.50;100.00
10881;BME280;5493;48.884;8.338;2023-04-06T03:46:58;100427.97;;;2.69;100.00
10881;BME280;5493;48.884;8.338;2023-04-06T03:49:25;100425.31;;;2.69;100.00
10881;BME280;5493;48.884;8.338;2023-04-06T03:51:52;100429.63;;;2.54;100.00
10881;BME280;5493;48.884;8.338;2023-04-06T03:54:19;100436.94;;;2.44;100.00
10881;BME280;5493;48.884;8.338;2023-04-06T03:56:47;100433.88;;;2.15;100.00
10881;BME280;5493;48.884;8.338;2023-04-06T03:59:13;100440.34;;;2.12;100.00
10881;BME280;5493;48.884;8.338;2023-04-06T04:01:40;100442.56;;;2.33;100.00
10881;BME280;5493;48.884;8.338;2023-04-06T04:04:06;100444.06;;;2.27;100.00
10881;BME280;5493;48.884;8.338;2023-04-06T04:06:33;100450.19;;;2.20;100.00
10881;BME280;5493;48.884;8.338;2023-04-06T04:09:02;100446.22;;;2.24;100.00
10881;BME280;5493;48.884;8.338;2023-04-06T04:11:29;100452.06;;;1.93;100.00
10881;BME280;5493;48.884;8.338;2023-04-06T04:13:57;100450.53;;;2.33;100.00
10881;BME280;5493;48.884;8.338;2023-04-06T04:16:23;100455.47;;;2.12;100.00
10881;BME280;5493;48.884;8.338;2023-04-06T04:18:50;100460.13;;;2.18;100.00
10881;BME280;5493;48.884;8.338;2023-04-06T04:21:16;100461.81;;;2.19;100.00
10881;BME280;5493;48.884;8.338;2023-04-06T04:23:43;100464.34;;;2.36;100.00
10881;BME280;5493;48.884;8.338;2023-04-06T04:26:09;100475.34;;;2.41;100.00
10881;BME280;5493;48.884;8.338;2023-04-06T04:28:36;100471.63;;;2.26;100.00
10881;BME280;5493;48.884;8.338;2023-04-06T04:31:05;100473.28;;;2.19;100.00
10881;BME280;5493;48.884;8.338;2023-04-06T04:33:32;100476.25;;;2.16;100.00
10881;BME280;5493;48.884;8.338;2023-04-06T04:35:58;100473.91;;;2.05;100.00
10881;BME280;5493;48.884;8.338;2023-04-06T04:38:25;100475.06;;;2.11;100.00
10881;BME280;5493;48.884;8.338;2023-04-06T04:40:51;100478.63;;;2.27;100.00
10881;BME280;5493;48.884;8.338;2023-04-06T04:43:18;100484.91;;;2.18;100.00
10881;BME280;5493;48.884;8.338;2023-04-06T04:45:44;100487.00;;;2.07;100.00
10881;BME280;5493;48.884;8.338;2023-04-06T04:48:12;100480.94;;;2.22;100.00
10881;BME280;5493;48.884;8.338;2023-04-06T04:50:39;100484.56;;;2.13;100.00
10881;BME280;5493;48.884;8.338;2023-04-06T04:53:05;100492.94;;;2.34;100.00
10881;BME280;5493;48.884;8.338;2023-04-06T04:55:32;100488.03;;;2.06;100.00
10881;BME280;5493;48.884;8.338;2023-04-06T04:57:58;100488.53;;;2.09;100.00
10881;BME280;5493;48.884;8.338;2023-04-06T05:00:25;100493.09;;;1.91;100.00
10881;BME280;5493;48.884;8.338;2023-04-06T05:02:51;100492.88;;;1.76;100.00
10881;BME280;5493;48.884;8.338;2023-04-06T05:05:19;100490.53;;;1.73;100.00
10881;BME280;5493;48.884;8.338;2023-04-06T05:07:46;100492.91;;;1.84;100.00
10881;BME280;5493;48.884;8.338;2023-04-06T05:10:12;100495.72;;;2.17;100.00
10881;BME280;5493;48.884;8.338;2023-04-06T05:12:39;100501.25;;;2.39;100.00
10881;BME280;5493;48.884;8.338;2023-04-06T05:15:06;100500.97;;;2.51;100.00
10881;BME280;5493;48.884;8.338;2023-04-06T05:17:34;100493.28;;;2.31;100.00
10881;BME280;5493;48.884;8.338;2023-04-06T05:20:00;100497.06;;;2.29;100.00
10881;BME280;5493;48.884;8.338;2023-04-06T05:22:28;100504.34;;;2.19;100.00
10881;BME280;5493;48.884;8.338;2023-04-06T05:24:55;100511.13;;;2.05;100.00
10881;BME280;5493;48.884;8.338;2023-04-06T05:27:21;100513.31;;;2.18;100.00
10881;BME280;5493;48.884;8.338;2023-04-06T05:29:48;100509.25;;;2.31;100.00
10881;BME280;5493;48.884;8.338;2023-04-06T05:32:15;100509.28;;;2.47;100.00
10881;BME280;5493;48.884;8.338;2023-04-06T05:34:41;100511.19;;;2.71;100.00
10881;BME280;5493;48.884;8.338;2023-04-06T05:37:08;100511.53;;;2.92;100.00
10881;BME280;5493;48.884;8.338;2023-04-06T05:39:36;100510.81;;;2.66;100.00
10881;BME280;5493;48.884;8.338;2023-04-06T05:42:04;100514.69;;;2.80;100.00
10881;BME280;5493;48.884;8.338;2023-04-06T05:44:30;100518.38;;;2.95;100.00
10881;BME280;5493;48.884;8.338;2023-04-06T05:46:57;100521.50;;;2.82;100.00
10881;BME280;5493;48.884;8.338;2023-04-06T05:49:23;100511.50;;;2.76;100.00
10881;BME280;5493;48.884;8.338;2023-04-06T05:51:50;100519.63;;;2.59;100.00
10881;BME280;5493;48.884;8.338;2023-04-06T05:54:17;100524.47;;;2.63;100.00
10881;BME280;5493;48.884;8.338;2023-04-06T05:56:44;100520.50;;;2.25;100.00
10881;BME280;5493;48.884;8.338;2023-04-06T05:59:11;100523.97;;;2.68;100.00
10881;BME280;5493;48.884;8.338;2023-04-06T06:01:37;100519.19;;;2.87;100.00
10881;BME280;5493;48.884;8.338;2023-04-06T06:04:04;100515.38;;;2.98;100.00
10881;BME280;5493;48.884;8.338;2023-04-06T06:06:30;100519.38;;;3.10;100.00
10881;BME280;5493;48.884;8.338;2023-04-06T06:08:57;100514.69;;;2.88;100.00
10881;BME280;5493;48.884;8.338;2023-04-06T06:11:25;100520.69;;;2.82;100.00
10881;BME280;5493;48.884;8.338;2023-04-06T06:13:53;100519.81;;;2.65;100.00
10881;BME280;5493;48.884;8.338;2023-04-06T06:16:20;100516.19;;;2.74;100.00
10881;BME280;5493;48.884;8.338;2023-04-06T06:18:46;100515.50;;;2.72;100.00
10881;BME280;5493;48.884;8.338;2023-04-06T06:21:13;100522.50;;;2.89;100.00
10881;BME280;5493;48.884;8.338;2023-04-06T06:23:42;100506.38;;;3.31;100.00
10881;BME280;5493;48.884;8.338;2023-04-06T06:26:08;100513.53;;;3.23;100.00
10881;BME280;5493;48.884;8.338;2023-04-06T06:28:35;100512.03;;;3.53;100.00
10881;BME280;5493;48.884;8.338;2023-04-06T06:31:02;100507.53;;;3.53;100.00
10881;BME280;5493;48.884;8.338;2023-04-06T06:33:29;100508.03;;;3.57;100.00
10881;BME280;5493;48.884;8.338;2023-04-06T06:35:55;100508.38;;;3.62;100.00
10881;BME280;5493;48.884;8.338;2023-04-06T06:38:22;100503.13;;;3.76;100.00
10881;BME280;5493;48.884;8.338;2023-04-06T06:40:48;100509.31;;;3.77;100.00
10881;BME280;5493;48.884;8.338;2023-04-06T06:43:15;100504.22;;;4.06;100.00
10881;BME280;5493;48.884;8.338;2023-04-06T06:45:41;100507.13;;;4.35;100.00
10881;BME280;5493;48.884;8.338;2023-04-06T06:48:09;100509.31;;;4.32;100.00
10881;BME280;5493;48.884;8.338;2023-04-06T06:50:36;100505.78;;;4.31;100.00
10881;BME280;5493;48.884;8.338;2023-04-06T06:53:02;100506.13;;;4.36;100.00
10881;BME280;5493;48.884;8.338;2023-04-06T06:55:29;100507.69;;;4.84;100.00
10881;BME280;5493;48.884;8.338;2023-04-06T06:57:56;100509.97;;;4.65;100.00
10881;BME280;5493;48.884;8.338;2023-04-06T07:00:23;100505.09;;;4.68;100.00
10881;BME280;5493;48.884;8.338;2023-04-06T07:02:49;100502.34;;;4.84;100.00
10881;BME280;5493;48.884;8.338;2023-04-06T07:05:18;100507.28;;;4.95;100.00
10881;BME280;5493;48.884;8.338;2023-04-06T07:07:44;100503.53;;;5.27;100.00
10881;BME280;5493;48.884;8.338;2023-04-06T07:10:11;100502.53;;;5.43;100.00
10881;BME280;5493;48.884;8.338;2023-04-06T07:12:37;100506.19;;;5.27;100.00
10881;BME280;5493;48.884;8.338;2023-04-06T07:15:06;100505.34;;;5.79;100.00
10881;BME280;5493;48.884;8.338;2023-04-06T07:17:33;100507.16;;;6.01;100.00
10881;BME280;5493;48.884;8.338;2023-04-06T07:19:59;100507.28;;;6.08;100.00
10881;BME280;5493;48.884;8.338;2023-04-06T07:22:27;100503.06;;;5.76;100.00
10881;BME280;5493;48.884;8.338;2023-04-06T07:24:54;100504.34;;;5.80;100.00
10881;BME280;5493;48.884;8.338;2023-04-06T07:27:21;100513.88;;;6.12;100.00
10881;BME280;5493;48.884;8.338;2023-04-06T07:29:47;100508.28;;;6.21;100.00
10881;BME280;5493;48.884;8.338;2023-04-06T07:32:13;100511.91;;;6.50;100.00
10881;BME280;5493;48.884;8.338;2023-04-06T07:34:40;100508.56;;;6.62;100.00
10881;BME280;5493;48.884;8.338;2023-04-06T07:37:06;100499.34;;;6.86;100.00
10881;BME280;5493;48.884;8.338;2023-04-06T07:39:34;100506.34;;;7.02;100.00
10881;BME280;5493;48.884;8.338;2023-04-06T07:42:01;100502.50;;;7.11;100.00
10881;BME280;5493;48.884;8.338;2023-04-06T07:44:27;100505.66;;;7.42;100.00
10881;BME280;5493;48.884;8.338;2023-04-06T07:46:54;100505.59;;;7.35;100.00
10881;BME280;5493;48.884;8.338;2023-04-06T07:49:20;100508.03;;;7.52;100.00
10881;BME280;5493;48.884;8.338;2023-04-06T07:51:48;100509.06;;;7.85;100.00
10881;BME280;5493;48.884;8.338;2023-04-06T07:54:15;100508.19;;;8.06;100.00
10881;BME280;5493;48.884;8.338;2023-04-06T07:56:42;100509.66;;;8.15;96.75
10881;BME280;5493;48.884;8.338;2023-04-06T07:59:09;100511.25;;;8.30;96.66
10881;BME280;5493;48.884;8.338;2023-04-06T08:01:36;100506.69;;;8.31;99.12
10881;BME280;5493;48.884;8.338;2023-04-06T08:04:03;100504.50;;;8.54;99.09
10881;BME280;5493;48.884;8.338;2023-04-06T08:06:29;100507.31;;;8.33;100.00
10881;BME280;5493;48.884;8.338;2023-04-06T08:08:56;100507.00;;;8.49;100.00
10881;BME280;5493;48.884;8.338;2023-04-06T08:11:22;100513.50;;;8.74;100.00
10881;BME280;5493;48.884;8.338;2023-04-06T08:13:50;100510.16;;;8.72;99.21
10881;BME280;5493;48.884;8.338;2023-04-06T08:16:17;100506.47;;;8.86;99.50
10881;BME280;5493;48.884;8.338;2023-04-06T08:18:44;100498.22;;;8.81;93.97
10881;BME280;5493;48.884;8.338;2023-04-06T08:21:11;100506.34;;;9.14;95.22
10881;BME280;5493;48.884;8.338;2023-04-06T08:23:37;100505.53;;;9.47;92.94
10881;BME280;5493;48.884;8.338;2023-04-06T08:26:04;100502.63;;;9.42;86.98
10881;BME280;5493;48.884;8.338;2023-04-06T08:28:31;100500.97;;;9.67;86.02
10881;BME280;5493;48.884;8.338;2023-04-06T08:30:58;100494.31;;;9.96;85.93
10881;BME280;5493;48.884;8.338;2023-04-06T08:33:25;100493.06;;;10.05;84.77
10881;BME280;5493;48.884;8.338;2023-04-06T08:35:51;100494.47;;;10.20;84.04
10881;BME280;5493;48.884;8.338;2023-04-06T08:38:18;100491.13;;;10.31;79.76
10881;BME280;5493;48.884;8.338;2023-04-06T08:40:44;100486.41;;;10.27;77.52
10881;BME280;5493;48.884;8.338;2023-04-06T08:43:14;100487.38;;;10.39;78.12
10881;BME280;5493;48.884;8.338;2023-04-06T08:45:41;100489.56;;;10.62;78.79
10881;BME280;5493;48.884;8.338;2023-04-06T08:48:11;100485.09;;;10.80;77.50
10881;BME280;5493;48.884;8.338;2023-04-06T08:50:38;100498.06;;;10.97;72.99
10881;BME280;5493;48.884;8.338;2023-04-06T08:53:06;100486.78;;;10.75;67.27
10881;BME280;5493;48.884;8.338;2023-04-06T08:55:33;100488.81;;;11.17;69.99
10881;BME280;5493;48.884;8.338;2023-04-06T08:58:00;100488.25;;;11.09;64.89
10881;BME280;5493;48.884;8.338;2023-04-06T09:00:27;100490.59;;;11.30;64.83
10881;BME280;5493;48.884;8.338;2023-04-06T09:02:54;100481.91;;;11.77;66.44
10881;BME280;5493;48.884;8.338;2023-04-06T09:05:23;100483.38;;;12.34;60.73
10881;BME280;5493;48.884;8.338;2023-04-06T09:07:51;100477.75;;;12.96;60.28
10881;BME280;5493;48.884;8.338;2023-04-06T09:10:18;100488.28;;;13.57;55.98
10881;BME280;5493;48.884;8.338;2023-04-06T09:12:45;100478.03;;;14.28;58.03
10881;BME280;5493;48.884;8.338;2023-04-06T09:15:18;100483.91;;;14.77;53.83
10881;BME280;5493;48.884;8.338;2023-04-06T09:17:45;100481.88;;;15.46;48.35
10881;BME280;5493;48.884;8.338;2023-04-06T09:20:12;100481.56;;;16.09;47.85
10881;BME280;5493;48.884;8.338;2023-04-06T09:22:40;100477.44;;;16.28;45.46
10881;BME280;5493;48.884;8.338;2023-04-06T09:25:08;100477.72;;;15.71;46.04
10881;BME280;5493;48.884;8.338;2023-04-06T09:27:37;100477.06;;;16.41;44.24
10881;BME280;5493;48.884;8.338;2023-04-06T09:30:05;100473.53;;;17.11;44.76
10881;BME280;5493;48.884;8.338;2023-04-06T09:32:32;100475.09;;;17.34;44.42
10881;BME280;5493;48.884;8.338;2023-04-06T09:35:10;100477.66;;;17.13;41.30
10881;BME280;5493;48.884;8.338;2023-04-06T09:37:36;100468.63;;;17.72;43.84
10881;BME280;5493;48.884;8.338;2023-04-06T09:40:06;100473.47;;;18.06;43.02
10881;BME280;5493;48.884;8.338;2023-04-06T09:42:34;100467.19;;;18.06;40.34
10881;BME280;5493;48.884;8.338;2023-04-06T09:45:00;100468.69;;;18.91;38.97
10881;BME280;5493;48.884;8.338;2023-04-06T09:47:28;100462.19;;;19.17;40.21
10881;BME280;5493;48.884;8.338;2023-04-06T09:49:56;100463.25;;;19.06;37.37
10881;BME280;5493;48.884;8.338;2023-04-06T09:52:26;100459.13;;;18.93;36.80
10881;BME280;5493;48.884;8.338;2023-04-06T09:54:55;100459.09;;;20.04;37.04
10881;BME280;5493;48.884;8.338;2023-04-06T09:57:31;100459.47;;;19.62;36.54
10881;BME280;5493;48.884;8.338;2023-04-06T10:00:03;100465.94;;;20.17;36.04
10881;BME280;5493;48.884;8.338;2023-04-06T10:02:39;100459.63;;;20.17;35.24
10881;BME280;5493;48.884;8.338;2023-04-06T10:05:09;100468.22;;;19.75;35.48
10881;BME280;5493;48.884;8.338;2023-04-06T10:07:39;100467.94;;;20.66;34.94
10881;BME280;5493;48.884;8.338;2023-04-06T10:10:07;100469.00;;;20.75;34.05
10881;BME280;5493;48.884;8.338;2023-04-06T10:12:36;100467.66;;;19.78;35.00
10881;BME280;5493;48.884;8.338;2023-04-06T10:15:03;100472.28;;;19.37;34.02
10881;BME280;5493;48.884;8.338;2023-04-06T10:17:30;100467.69;;;19.68;34.90
10881;BME280;5493;48.884;8.338;2023-04-06T10:20:01;100463.47;;;20.15;31.94
10881;BME280;5493;48.884;8.338;2023-04-06T10:22:36;100462.75;;;19.59;34.82
10881;BME280;5493;48.884;8.338;2023-04-06T10:25:05;100453.38;;;19.10;33.60
10881;BME280;5493;48.884;8.338;2023-04-06T10:27:34;100464.84;;;18.97;33.13
10881;BME280;5493;48.884;8.338;2023-04-06T10:30:03;100461.66;;;19.45;32.48
10881;BME280;5493;48.884;8.338;2023-04-06T10:32:37;100455.63;;;19.38;32.90
10881;BME280;5493;48.884;8.338;2023-04-06T10:35:11;100456.63;;;20.08;32.68
10881;BME280;5493;48.884;8.338;2023-04-06T10:37:50;100459.88;;;20.30;32.21
10881;BME280;5493;48.884;8.338;2023-04-06T10:40:21;100460.50;;;20.02;31.66
10881;BME280;5493;48.884;8.338;2023-04-06T10:42:48;100455.53;;;20.14;33.89
10881;BME280;5493;48.884;8.338;2023-04-06T10:45:24;100451.88;;;20.49;32.35
10881;BME280;5493;48.884;8.338;2023-04-06T10:47:52;100451.50;;;19.76;31.63
10881;BME280;5493;48.884;8.338;2023-04-06T10:50:19;100450.66;;;20.70;32.20
10881;BME280;5493;48.884;8.338;2023-04-06T10:52:46;100441.31;;;21.20;32.18
10881;BME280;5493;48.884;8.338;2023-04-06T10:55:14;100449.75;;;20.31;31.44
10881;BME280;5493;48.884;8.338;2023-04-06T10:57:41;100434.41;;;20.35;29.85
10881;BME280;5493;48.884;8.338;2023-04-06T11:00:08;100431.81;;;20.63;31.46
10881;BME280;5493;48.884;8.338;2023-04-06T11:02:37;100435.28;;;20.79;31.69
10881;BME280;5493;48.884;8.338;2023-04-06T11:05:04;100425.91;;;20.85;31.77
10881;BME280;5493;48.884;8.338;2023-04-06T11:07:31;100429.34;;;19.78;32.00
10881;BME280;5493;48.884;8.338;2023-04-06T11:09:57;100422.09;;;20.32;31.66
10881;BME280;5493;48.884;8.338;2023-04-06T11:12:24;100415.13;;;20.55;32.03
10881;BME280;5493;48.884;8.338;2023-04-06T11:14:56;100423.94;;;20.91;30.75
10881;BME280;5493;48.884;8.338;2023-04-06T11:17:27;100417.75;;;20.16;31.02
10881;BME280;5493;48.884;8.338;2023-04-06T11:19:56;100417.81;;;19.91;31.58
10881;BME280;5493;48.884;8.338;2023-04-06T11:22:23;100408.31;;;19.48;31.37
10881;BME280;5493;48.884;8.338;2023-04-06T11:24:49;100422.28;;;19.41;31.71
10881;BME280;5493;48.884;8.338;2023-04-06T11:27:17;100402.31;;;19.46;32.74
10881;BME280;5493;48.884;8.338;2023-04-06T11:29:44;100402.88;;;20.37;31.18
10881;BME280;5493;48.884;8.338;2023-04-06T11:32:20;100403.13;;;19.31;31.40
10881;BME280;5493;48.884;8.338;2023-04-06T11:34:47;100397.38;;;19.28;34.00
10881;BME280;5493;48.884;8.338;2023-04-06T11:37:15;100397.38;;;19.33;33.14
10881;BME280;5493;48.884;8.338;2023-04-06T11:39:47;100390.59;;;20.30;33.10
10881;BME280;5493;48.884;8.338;2023-04-06T11:42:21;100387.78;;;19.71;33.26
10881;BME280;5493;48.884;8.338;2023-04-06T11:44:50;100395.13;;;18.74;32.29
10881;BME280;5493;48.884;8.338;2023-04-06T11:47:18;100392.44;;;19.40;32.64
10881;BME280;5493;48.884;8.338;2023-04-06T11:49:45;100385.88;;;19.36;31.72
10881;BME280;5493;48.884;8.338;2023-04-06T11:52:18;100384.22;;;19.40;31.80
10881;BME280;5493;48.884;8.338;2023-04-06T11:54:46;100385.63;;;18.04;32.45
10881;BME280;5493;48.884;8.338;2023-04-06T11:57:13;100384.66;;;18.41;32.79
10881;BME280;5493;48.884;8.338;2023-04-06T11:59:40;100380.81;;;18.27;32.75
10881;BME280;5493;48.884;8.338;2023-04-06T12:02:06;100381.75;;;18.67;33.37
10881;BME280;5493;48.884;8.338;2023-04-06T12:04:33;100377.69;;;19.26;33.32
10881;BME280;5493;48.884;8.338;2023-04-06T12:06:59;100371.38;;;19.10;31.94
10881;BME280;5493;48.884;8.338;2023-04-06T12:09:27;100373.88;;;19.52;33.03
10881;BME280;5493;48.884;8.338;2023-04-06T12:11:54;100366.50;;;19.42;32.02
10881;BME280;5493;48.884;8.338;2023-04-06T12:14:21;100372.19;;;19.36;32.34
10881;BME280;5493;48.884;8.338;2023-04-06T12:16:47;100369.72;;;18.63;33.57
10881;BME280;5493;48.884;8.338;2023-04-06T12:19:14;100363.06;;;18.34;32.98
10881;BME280;5493;48.884;8.338;2023-04-06T12:21:41;100368.25;;;18.26;33.58
10881;BME280;5493;48.884;8.338;2023-04-06T12:24:07;100360.75;;;19.08;35.25
10881;BME280;5493;48.884;8.338;2023-04-06T12:26:36;100358.00;;;18.78;31.64
10881;BME280;5493;48.884;8.338;2023-04-06T12:29:03;100359.09;;;18.82;32.16
10881;BME280;5493;48.884;8.338;2023-04-06T12:31:32;100356.34;;;18.72;32.30
10881;BME280;5493;48.884;8.338;2023-04-06T12:33:59;100360.22;;;18.91;31.95
10881;BME280;5493;48.884;8.338;2023-04-06T12:36:27;100348.16;;;19.38;31.34
10881;BME280;5493;48.884;8.338;2023-04-06T12:38:54;100350.88;;;19.38;32.87
10881;BME280;5493;48.884;8.338;2023-04-06T12:41:20;100346.50;;;19.32;30.79
10881;BME280;5493;48.884;8.338;2023-04-06T12:43:48;100352.28;;;19.20;30.80
10881;BME280;5493;48.884;8.338;2023-04-06T12:46:15;100347.91;;;19.24;31.16
10881;BME280;5493;48.884;8.338;2023-04-06T12:48:42;100349.53;;;18.80;31.33
10881;BME280;5493;48.884;8.338;2023-04-06T12:51:08;100349.25;;;18.76;29.25
10881;BME280;5493;48.884;8.338;2023-04-06T12:53:35;100346.25;;;19.33;29.55
10881;BME280;5493;48.884;8.338;2023-04-06T12:56:09;100337.53;;;19.16;27.76
10881;BME280;5493;48.884;8.338;2023-04-06T12:58:36;100342.16;;;18.75;28.76
10881;BME280;5493;48.884;8.338;2023-04-06T13:01:06;100335.34;;;19.13;29.25